»·PEaware :: SWA2806 KLAS-KSLC

SWA2806 :: KLAS-KSLC

FLIGHT INFORMATION

Flight Status: Arrived
Operator:
Southwest Airlines
More flights by this operator :: More flights under this callsign
Pilot: Kirk M. (10269)
Aircraft: BOEING 737-300
(B733)
More flights by this aircraft type
Origin: KLAS McCarran Intl
United States
Destination: KSLC Salt Lake City Intl
United States
More flights between these airports :: More routes between these airports
Route: TRALR9 MLF QWENN5
File this flight plan on PilotEdge
Remarks: PBN / A1B3B4B5D3D4 DOF / 180113 REG / N372SB EET / KZLC0024 OPR / SWA PER / C RMK / TCAS SIMBRIEF
Altitude:
(Current/Filed)
33,000ft
Speed:
(Current/Filed)
419kts
Departed: 13-Jan-18 04:05 PM
Arrived: 13-Jan-18 05:08 PM
Distance/Time
Traveled:
319nm/1:03
Distance/Time
To Go:
Arrived

Flight Plot

Page will automatically refresh every two minutes.

Flight plan parsing failed; only flown route is shown


Map Options




Map Legend


Flown Route
Filed Route
Departure Airport
Arrival Airport
Navaid (VOR, NDB)
Fix

Horizontal Profiles

Position Reports

Time Latitude Longitude Heading Altitude Ground
Speed
13-Jan-18 15:18 36.079941 -115.147091 57 2118ft 0kts
13-Jan-18 15:19 36.079941 -115.147091 57 2118ft 0kts
13-Jan-18 15:20 36.079941 -115.147091 57 2118ft 0kts
13-Jan-18 15:21 36.079941 -115.147091 57 2118ft 0kts
13-Jan-18 15:22 36.079941 -115.147091 57 2118ft 0kts
13-Jan-18 15:23 36.079941 -115.147091 57 2118ft 0kts
13-Jan-18 15:24 36.079941 -115.147091 57 2118ft 0kts
13-Jan-18 15:25 36.079941 -115.147091 57 2118ft 0kts
13-Jan-18 15:26 36.079941 -115.147091 57 2118ft 0kts
13-Jan-18 15:27 36.079941 -115.147091 57 2118ft 0kts
13-Jan-18 15:28 36.079941 -115.147091 57 2118ft 0kts
13-Jan-18 15:29 36.079941 -115.147091 57 2118ft 0kts
13-Jan-18 15:30 36.079941 -115.147091 57 2118ft 0kts
13-Jan-18 15:31 36.079941 -115.147091 57 2118ft 0kts
13-Jan-18 15:32 36.079941 -115.147091 57 2118ft 0kts
13-Jan-18 15:33 36.079941 -115.147091 57 2118ft 0kts
13-Jan-18 15:34 36.079941 -115.147091 57 2118ft 0kts
13-Jan-18 15:35 36.079941 -115.147091 57 2118ft 0kts
13-Jan-18 15:36 36.079941 -115.147091 57 2118ft 0kts
13-Jan-18 15:37 36.079941 -115.147091 57 2118ft 0kts
13-Jan-18 15:38 36.079941 -115.147091 57 2118ft 0kts
13-Jan-18 15:39 36.079941 -115.147091 57 2118ft 0kts
13-Jan-18 15:40 36.079941 -115.147091 57 2118ft 0kts
13-Jan-18 15:41 36.079941 -115.147091 57 2118ft 0kts
13-Jan-18 15:42 36.079941 -115.147091 57 2118ft 0kts
13-Jan-18 15:43 36.079941 -115.147091 57 2118ft 0kts
13-Jan-18 15:44 36.079941 -115.147091 57 2118ft 0kts
13-Jan-18 15:45 36.079941 -115.147091 57 2118ft 0kts
13-Jan-18 15:46 36.079941 -115.147091 57 2118ft 0kts
13-Jan-18 15:47 36.079941 -115.147091 57 2118ft 0kts
13-Jan-18 15:48 36.079941 -115.147091 57 2118ft 0kts
13-Jan-18 15:49 36.079941 -115.147091 57 2118ft 0kts
13-Jan-18 15:50 36.079941 -115.147091 57 2118ft 0kts
13-Jan-18 15:51 36.079844 -115.147382 81 2118ft 2kts
13-Jan-18 15:52 36.080107 -115.147962 155 2118ft 2kts
13-Jan-18 15:53 36.080389 -115.148168 154 2118ft 0kts
13-Jan-18 15:54 36.080389 -115.148168 154 2118ft 0kts
13-Jan-18 15:55 36.080389 -115.148168 154 2118ft 0kts
13-Jan-18 15:56 36.079507 -115.147645 156 2118ft 6kts
13-Jan-18 15:57 36.079422 -115.147599 155 2118ft 0kts
13-Jan-18 15:58 36.079422 -115.147599 155 2118ft 0kts
13-Jan-18 15:59 36.079422 -115.147599 155 2118ft 0kts
13-Jan-18 16:00 36.079422 -115.147599 155 2118ft 0kts
13-Jan-18 16:01 36.079422 -115.147599 155 2118ft 0kts
13-Jan-18 16:02 36.079422 -115.147599 155 2118ft 0kts
13-Jan-18 16:03 36.078440 -115.146141 94 2118ft 12kts
13-Jan-18 16:04 36.078219 -115.140171 90 2118ft 18kts
13-Jan-18 16:05 36.078225 -115.133538 89 2118ft 20kts
13-Jan-18 16:06 36.078243 -115.126425 91 2118ft 21kts
13-Jan-18 16:07 36.077430 -115.121444 145 2118ft 0kts
13-Jan-18 16:08 36.077430 -115.121443 145 2118ft 0kts
13-Jan-18 16:09 36.077430 -115.121443 145 2118ft 0kts
13-Jan-18 16:10 36.077292 -115.121380 169 2118ft 7kts
13-Jan-18 16:11 36.076396 -115.130780 270 2118ft 93kts
13-Jan-18 16:12 36.075995 -115.179782 263 2617ft 179kts
13-Jan-18 16:13 36.068194 -115.247872 232 4956ft 227kts
13-Jan-18 16:14 36.008901 -115.284473 200 7528ft 270kts
13-Jan-18 16:15 35.939285 -115.284011 154 9967ft 302kts
13-Jan-18 16:16 35.870055 -115.223116 110 12391ft 340kts
13-Jan-18 16:17 35.865067 -115.107778 90 15469ft 349kts
13-Jan-18 16:18 35.888544 -115.014550 59 17639ft 359kts
13-Jan-18 16:19 35.946693 -114.885851 59 19948ft 388kts
13-Jan-18 16:20 35.994623 -114.763360 63 21865ft 409kts
13-Jan-18 16:21 36.044077 -114.635436 63 23813ft 422kts
13-Jan-18 16:22 36.086101 -114.526393 63 25304ft 432kts
13-Jan-18 16:23 36.146447 -114.369806 63 27212ft 446kts
13-Jan-18 16:24 36.199380 -114.231035 64 28831ft 455kts
13-Jan-18 16:25 36.252459 -114.093989 63 30800ft 450kts
13-Jan-18 16:26 36.297220 -113.978705 62 32200ft 448kts
13-Jan-18 16:27 36.343729 -113.858481 62 33332ft 451kts
13-Jan-18 16:28 36.399432 -113.713890 62 33332ft 476kts
13-Jan-18 16:29 36.476230 -113.589015 16 33333ft 460kts
13-Jan-18 16:30 36.600152 -113.567815 8 33354ft 458kts
13-Jan-18 16:31 36.720760 -113.531967 9 33333ft 446kts
13-Jan-18 16:32 36.839987 -113.496001 9 33348ft 447kts
13-Jan-18 16:33 36.956799 -113.460651 9 33346ft 447kts
13-Jan-18 16:34 37.074808 -113.424830 9 33357ft 444kts
13-Jan-18 16:35 37.192535 -113.389103 9 33364ft 448kts
13-Jan-18 16:36 37.293602 -113.358162 9 33403ft 447kts
13-Jan-18 16:37 37.412819 -113.321000 10 33400ft 448kts
13-Jan-18 16:38 37.531647 -113.282781 10 33400ft 448kts
13-Jan-18 16:39 37.650847 -113.244407 10 33400ft 447kts
13-Jan-18 16:40 37.770538 -113.205748 10 33401ft 447kts
13-Jan-18 16:41 37.889975 -113.167040 10 33400ft 447kts
13-Jan-18 16:42 38.009177 -113.128283 10 33401ft 447kts
13-Jan-18 16:43 38.118507 -113.092579 10 33385ft 448kts
13-Jan-18 16:44 38.230127 -113.056044 10 33422ft 447kts
13-Jan-18 16:45 38.349085 -113.016986 10 33428ft 447kts
13-Jan-18 16:46 38.464143 -112.958147 18 33428ft 451kts
13-Jan-18 16:47 38.578462 -112.897067 18 33429ft 451kts
13-Jan-18 16:48 38.692379 -112.836070 16 33443ft 447kts
13-Jan-18 16:49 38.804427 -112.775907 16 33422ft 441kts
13-Jan-18 16:50 38.916643 -112.715238 16 33456ft 441kts
13-Jan-18 16:51 39.028942 -112.654475 16 33454ft 441kts
13-Jan-18 16:52 39.138089 -112.595288 16 33442ft 441kts
13-Jan-18 16:53 39.247557 -112.535723 17 33074ft 441kts
13-Jan-18 16:54 39.357209 -112.474273 17 29380ft 430kts
13-Jan-18 16:55 39.462205 -112.413964 18 26855ft 406kts
13-Jan-18 16:56 39.560891 -112.357205 18 24655ft 384kts
13-Jan-18 16:57 39.654182 -112.303052 19 22572ft 363kts
13-Jan-18 16:58 39.743573 -112.251287 19 20595ft 359kts
13-Jan-18 16:59 39.830696 -112.200706 19 18666ft 340kts
13-Jan-18 17:00 39.913770 -112.152390 20 16285ft 337kts
13-Jan-18 17:01 39.995077 -112.104411 21 14952ft 300kts
13-Jan-18 17:02 40.065551 -112.061849 21 12843ft 287kts
13-Jan-18 17:03 40.132787 -112.021277 24 11315ft 263kts
13-Jan-18 17:04 40.192380 -111.985068 29 10980ft 245kts
13-Jan-18 17:05 40.259771 -111.955088 351 11067ft 340kts
13-Jan-18 17:06 40.345981 -111.953756 12 8362ft 344kts
13-Jan-18 17:07 40.431135 -111.935513 351 7764ft 271kts
13-Jan-18 17:08 40.500334 -111.947407 351 7471ft 249kts
13-Jan-18 17:09 40.565829 -111.958913 351 6962ft 225kts
13-Jan-18 17:10 40.623887 -111.961919 7 6107ft 190kts
13-Jan-18 17:11 40.674269 -111.958719 348 5865ft 183kts
13-Jan-18 17:12 40.721336 -111.967976 359 5508ft 138kts
13-Jan-18 17:13 40.757657 -111.971328 353 4696ft 142kts
13-Jan-18 17:14 40.789740 -111.974869 354 4234ft 38kts
13-Jan-18 17:15 40.791799 -111.977139 196 4234ft 14kts
13-Jan-18 17:16 40.789159 -111.977954 226 4234ft 1kts
13-Jan-18 17:17 40.789153 -111.977962 225 4234ft 0kts
13-Jan-18 17:18 40.789153 -111.977962 225 4234ft 0kts

Navigation Log

Ident Type
Flight plan parsing failed, navigation log unavailable